sensor_id;sensor_type;location;lat;lon;timestamp;temperature;humidity
19781;DHT22;10050;55.492;13.506;2022-12-16T00:01:18;-7.90;99.90
19781;DHT22;10050;55.492;13.506;2022-12-16T00:03:52;-7.90;99.90
19781;DHT22;10050;55.492;13.506;2022-12-16T00:06:19;-7.80;99.90
19781;DHT22;10050;55.492;13.506;2022-12-16T00:08:45;-7.80;99.90
19781;DHT22;10050;55.492;13.506;2022-12-16T00:11:12;-7.70;99.90
19781;DHT22;10050;55.492;13.506;2022-12-16T00:13:38;-7.70;99.90
19781;DHT22;10050;55.492;13.506;2022-12-16T00:16:09;-7.70;99.90
19781;DHT22;10050;55.492;13.506;2022-12-16T00:18:35;-7.60;99.90
19781;DHT22;10050;55.492;13.506;2022-12-16T00:21:01;-7.60;99.90
19781;DHT22;10050;55.492;13.506;2022-12-16T00:23:27;-7.50;99.90
19781;DHT22;10050;55.492;13.506;2022-12-16T00:25:53;-7.40;99.90
19781;DHT22;10050;55.492;13.506;2022-12-16T00:28:19;-7.20;99.90
19781;DHT22;10050;55.492;13.506;2022-12-16T00:30:52;-7.10;99.90
19781;DHT22;10050;55.492;13.506;2022-12-16T00:33:20;-7.00;99.90
19781;DHT22;10050;55.492;13.506;2022-12-16T00:35:46;-7.00;99.90
19781;DHT22;10050;55.492;13.506;2022-12-16T00:38:12;-7.00;99.90
19781;DHT22;10050;55.492;13.506;2022-12-16T00:40:37;-7.00;99.90
19781;DHT22;10050;55.492;13.506;2022-12-16T00:43:03;-7.00;99.90
19781;DHT22;10050;55.492;13.506;2022-12-16T00:45:30;-7.00;99.90
19781;DHT22;10050;55.492;13.506;2022-12-16T00:47:55;-7.10;99.90
19781;DHT22;10050;55.492;13.506;2022-12-16T00:50:21;-7.10;99.90
19781;DHT22;10050;55.492;13.506;2022-12-16T00:52:47;-7.20;99.90
19781;DHT22;10050;55.492;13.506;2022-12-16T00:55:14;-7.20;99.90
19781;DHT22;10050;55.492;13.506;2022-12-16T00:57:40;-7.30;99.90
19781;DHT22;10050;55.492;13.506;2022-12-16T01:00:07;-7.30;99.90
19781;DHT22;10050;55.492;13.506;2022-12-16T01:02:40;-7.30;99.90
19781;DHT22;10050;55.492;13.506;2022-12-16T01:05:08;-7.40;99.90
19781;DHT22;10050;55.492;13.506;2022-12-16T01:07:34;-7.40;99.90
19781;DHT22;10050;55.492;13.506;2022-12-16T01:10:00;-7.40;99.90
19781;DHT22;10050;55.492;13.506;2022-12-16T01:12:26;-7.50;99.90
19781;DHT22;10050;55.492;13.506;2022-12-16T01:14:51;-7.50;99.90
19781;DHT22;10050;55.492;13.506;2022-12-16T01:17:17;-7.50;99.90
19781;DHT22;10050;55.492;13.506;2022-12-16T01:19:42;-7.50;99.90
19781;DHT22;10050;55.492;13.506;2022-12-16T01:22:08;-7.50;99.90
19781;DHT22;10050;55.492;13.506;2022-12-16T06:19:49;-8.40;99.90
19781;DHT22;10050;55.492;13.506;2022-12-16T06:22:33;-8.50;99.90
19781;DHT22;10050;55.492;13.506;2022-12-16T06:25:17;-8.60;99.90
19781;DHT22;10050;55.492;13.506;2022-12-16T06:28:02;-8.70;99.90
19781;DHT22;10050;55.492;13.506;2022-12-16T06:30:46;-8.60;99.90
19781;DHT22;10050;55.492;13.506;2022-12-16T06:33:30;-8.50;99.90
19781;DHT22;10050;55.492;13.506;2022-12-16T06:36:14;-8.60;99.90
19781;DHT22;10050;55.492;13.506;2022-12-16T06:38:59;-8.60;99.90
19781;DHT22;10050;55.492;13.506;2022-12-16T06:41:43;-8.60;99.90
19781;DHT22;10050;55.492;13.506;2022-12-16T06:44:27;-8.70;99.90
19781;DHT22;10050;55.492;13.506;2022-12-16T06:47:11;-8.70;99.90
19781;DHT22;10050;55.492;13.506;2022-12-16T06:49:56;-8.60;99.90
19781;DHT22;10050;55.492;13.506;2022-12-16T06:52:42;-8.60;99.90
19781;DHT22;10050;55.492;13.506;2022-12-16T06:55:27;-8.70;99.90
19781;DHT22;10050;55.492;13.506;2022-12-16T06:58:11;-8.60;99.90
19781;DHT22;10050;55.492;13.506;2022-12-16T07:00:55;-8.60;99.90
19781;DHT22;10050;55.492;13.506;2022-12-16T07:03:39;-8.60;99.90
19781;DHT22;10050;55.492;13.506;2022-12-16T07:06:40;-8.60;99.90
19781;DHT22;10050;55.492;13.506;2022-12-16T07:09:24;-8.60;99.90
19781;DHT22;10050;55.492;13.506;2022-12-16T07:12:08;-8.50;99.90
19781;DHT22;10050;55.492;13.506;2022-12-16T07:14:57;-8.50;99.90
19781;DHT22;10050;55.492;13.506;2022-12-16T07:17:44;-8.50;99.90
19781;DHT22;10050;55.492;13.506;2022-12-16T07:20:28;-8.50;99.90
19781;DHT22;10050;55.492;13.506;2022-12-16T07:23:12;-8.60;99.90
19781;DHT22;10050;55.492;13.506;2022-12-16T07:25:57;-8.50;99.90
19781;DHT22;10050;55.492;13.506;2022-12-16T07:28:48;-8.50;99.90
19781;DHT22;10050;55.492;13.506;2022-12-16T07:31:33;-8.50;99.90
19781;DHT22;10050;55.492;13.506;2022-12-16T07:34:17;-8.50;99.90
19781;DHT22;10050;55.492;13.506;2022-12-16T07:37:01;-8.50;99.90
19781;DHT22;10050;55.492;13.506;2022-12-16T07:39:45;-8.50;99.90
19781;DHT22;10050;55.492;13.506;2022-12-16T07:42:30;-8.40;99.90
19781;DHT22;10050;55.492;13.506;2022-12-16T07:45:14;-8.40;99.90
19781;DHT22;10050;55.492;13.506;2022-12-16T07:47:58;-8.30;99.90
19781;DHT22;10050;55.492;13.506;2022-12-16T07:50:42;-8.30;99.90
19781;DHT22;10050;55.492;13.506;2022-12-16T07:53:27;-8.30;99.90
19781;DHT22;10050;55.492;13.506;2022-12-16T07:56:11;-8.20;99.90
19781;DHT22;10050;55.492;13.506;2022-12-16T07:58:55;-8.20;99.90
19781;DHT22;10050;55.492;13.506;2022-12-16T08:01:39;-6.50;99.90
19781;DHT22;10050;55.492;13.506;2022-12-16T08:04:24;-2.50;99.90
19781;DHT22;10050;55.492;13.506;2022-12-16T08:07:08;1.70;99.90
19781;DHT22;10050;55.492;13.506;2022-12-16T08:09:53;5.00;99.90
19781;DHT22;10050;55.492;13.506;2022-12-16T08:12:37;7.20;99.90
19781;DHT22;10050;55.492;13.506;2022-12-16T08:15:21;9.00;99.90
19781;DHT22;10050;55.492;13.506;2022-12-16T08:18:06;10.30;99.90
19781;DHT22;10050;55.492;13.506;2022-12-16T08:20:50;11.10;99.10
19781;DHT22;10050;55.492;13.506;2022-12-16T08:23:34;11.60;90.30
19781;DHT22;10050;55.492;13.506;2022-12-16T08:26:18;11.70;84.10
19781;DHT22;10050;55.492;13.506;2022-12-16T08:29:03;11.80;79.80
19781;DHT22;10050;55.492;13.506;2022-12-16T08:31:47;12.10;78.40
19781;DHT22;10050;55.492;13.506;2022-12-16T08:34:31;12.40;76.70
19781;DHT22;10050;55.492;13.506;2022-12-16T08:37:15;13.20;76.00
19781;DHT22;10050;55.492;13.506;2022-12-16T08:39:59;13.80;73.60
19781;DHT22;10050;55.492;13.506;2022-12-16T08:42:44;14.10;72.40
19781;DHT22;10050;55.492;13.506;2022-12-16T08:45:28;14.50;71.90
19781;DHT22;10050;55.492;13.506;2022-12-16T08:48:12;14.90;71.40
19781;DHT22;10050;55.492;13.506;2022-12-16T08:51:13;15.20;70.80
19781;DHT22;10050;55.492;13.506;2022-12-16T08:53:57;15.60;70.20
19781;DHT22;10050;55.492;13.506;2022-12-16T08:56:42;15.70;68.40
19781;DHT22;10050;55.492;13.506;2022-12-16T08:59:26;15.70;68.30
19781;DHT22;10050;55.492;13.506;2022-12-16T09:02:11;15.60;68.20
19781;DHT22;10050;55.492;13.506;2022-12-16T09:04:55;15.60;67.70
19781;DHT22;10050;55.492;13.506;2022-12-16T09:07:39;15.70;67.50
19781;DHT22;10050;55.492;13.506;2022-12-16T09:10:23;15.90;67.60
19781;DHT22;10050;55.492;13.506;2022-12-16T09:13:12;15.60;67.50
19781;DHT22;10050;55.492;13.506;2022-12-16T09:15:57;15.40;67.10
19781;DHT22;10050;55.492;13.506;2022-12-16T09:18:41;15.00;68.50
19781;DHT22;10050;55.492;13.506;2022-12-16T09:21:25;14.80;68.40
19781;DHT22;10050;55.492;13.506;2022-12-16T09:24:10;14.70;68.60
19781;DHT22;10050;55.492;13.506;2022-12-16T09:26:54;14.60;68.50
19781;DHT22;10050;55.492;13.506;2022-12-16T09:29:39;14.50;69.20
19781;DHT22;10050;55.492;13.506;2022-12-16T09:32:23;14.40;69.10
19781;DHT22;10050;55.492;13.506;2022-12-16T09:35:08;14.20;70.00
19781;DHT22;10050;55.492;13.506;2022-12-16T09:37:52;13.90;70.50
19781;DHT22;10050;55.492;13.506;2022-12-16T09:40:38;13.80;71.20
19781;DHT22;10050;55.492;13.506;2022-12-16T09:46:59;13.40;72.30
19781;DHT22;10050;55.492;13.506;2022-12-16T09:49:49;13.20;72.80
19781;DHT22;10050;55.492;13.506;2022-12-16T09:52:45;13.10;73.80
19781;DHT22;10050;55.492;13.506;2022-12-16T09:55:40;12.90;74.40
19781;DHT22;10050;55.492;13.506;2022-12-16T09:58:32;11.80;74.70
19781;DHT22;10050;55.492;13.506;2022-12-16T10:01:20;10.50;76.30
19781;DHT22;10050;55.492;13.506;2022-12-16T10:04:06;10.20;80.90
19781;DHT22;10050;55.492;13.506;2022-12-16T10:06:57;9.90;82.70
19781;DHT22;10050;55.492;13.506;2022-12-16T10:12:53;9.70;86.60
19781;DHT22;10050;55.492;13.506;2022-12-16T10:16:12;10.00;86.40
19781;DHT22;10050;55.492;13.506;2022-12-16T10:19:07;10.00;85.00
19781;DHT22;10050;55.492;13.506;2022-12-16T10:22:28;10.00;83.90
19781;DHT22;10050;55.492;13.506;2022-12-16T10:25:22;9.50;85.70
19781;DHT22;10050;55.492;13.506;2022-12-16T10:28:18;8.90;86.00
19781;DHT22;10050;55.492;13.506;2022-12-16T10:31:17;8.60;85.80
19781;DHT22;10050;55.492;13.506;2022-12-16T10:34:04;8.50;89.60
19781;DHT22;10050;55.492;13.506;2022-12-16T10:36:52;8.40;89.30
19781;DHT22;10050;55.492;13.506;2022-12-16T10:39:40;8.30;90.30
19781;DHT22;10050;55.492;13.506;2022-12-16T10:42:28;8.20;90.10
19781;DHT22;10050;55.492;13.506;2022-12-16T10:45:23;8.00;91.20
19781;DHT22;10050;55.492;13.506;2022-12-16T10:48:09;7.90;91.50
19781;DHT22;10050;55.492;13.506;2022-12-16T10:50:54;7.50;91.10
19781;DHT22;10050;55.492;13.506;2022-12-16T10:53:38;7.40;93.40
19781;DHT22;10050;55.492;13.506;2022-12-16T10:56:58;7.10;92.50
19781;DHT22;10050;55.492;13.506;2022-12-16T10:59:44;6.90;93.60
19781;DHT22;10050;55.492;13.506;2022-12-16T11:02:28;6.90;94.80
19781;DHT22;10050;55.492;13.506;2022-12-16T11:08:31;6.80;97.30
19781;DHT22;10050;55.492;13.506;2022-12-16T11:11:34;6.50;98.20
19781;DHT22;10050;55.492;13.506;2022-12-16T11:14:27;5.40;94.40
19781;DHT22;10050;55.492;13.506;2022-12-16T11:17:20;5.00;98.70
19781;DHT22;10050;55.492;13.506;2022-12-16T11:20:25;4.80;99.90
19781;DHT22;10050;55.492;13.506;2022-12-16T11:23:24;4.70;98.40
19781;DHT22;10050;55.492;13.506;2022-12-16T11:26:18;4.70;99.90
19781;DHT22;10050;55.492;13.506;2022-12-16T11:29:14;4.30;98.60
19781;DHT22;10050;55.492;13.506;2022-12-16T11:32:22;3.80;99.90
19781;DHT22;10050;55.492;13.506;2022-12-16T11:35:18;3.80;99.90
19781;DHT22;10050;55.492;13.506;2022-12-16T11:38:05;3.70;99.90
19781;DHT22;10050;55.492;13.506;2022-12-16T11:40:54;3.40;99.90
19781;DHT22;10050;55.492;13.506;2022-12-16T11:43:39;3.20;99.90
19781;DHT22;10050;55.492;13.506;2022-12-16T11:46:27;2.90;99.90
19781;DHT22;10050;55.492;13.506;2022-12-16T11:49:29;2.70;99.90
19781;DHT22;10050;55.492;13.506;2022-12-16T11:52:16;2.40;99.90
19781;DHT22;10050;55.492;13.506;2022-12-16T11:55:20;2.30;99.90
19781;DHT22;10050;55.492;13.506;2022-12-16T11:58:22;2.10;99.90
19781;DHT22;10050;55.492;13.506;2022-12-16T12:01:23;2.00;99.90
19781;DHT22;10050;55.492;13.506;2022-12-16T12:04:10;2.00;99.90
19781;DHT22;10050;55.492;13.506;2022-12-16T12:16:12;1.70;99.90
19781;DHT22;10050;55.492;13.506;2022-12-16T12:19:07;1.40;99.90
19781;DHT22;10050;55.492;13.506;2022-12-16T12:22:04;1.20;99.90
19781;DHT22;10050;55.492;13.506;2022-12-16T12:25:08;1.10;99.90
19781;DHT22;10050;55.492;13.506;2022-12-16T12:31:54;0.90;99.90
19781;DHT22;10050;55.492;13.506;2022-12-16T12:37:56;0.90;99.90
19781;DHT22;10050;55.492;13.506;2022-12-16T12:47:46;0.80;99.90
19781;DHT22;10050;55.492;13.506;2022-12-16T12:50:38;0.70;99.90
19781;DHT22;10050;55.492;13.506;2022-12-16T13:02:24;0.30;99.90
19781;DHT22;10050;55.492;13.506;2022-12-16T13:05:12;0.20;99.90
19781;DHT22;10050;55.492;13.506;2022-12-16T13:08:30;0.20;99.90
19781;DHT22;10050;55.492;13.506;2022-12-16T13:11:14;0.00;99.90
19781;DHT22;10050;55.492;13.506;2022-12-16T13:13:59;-0.10;99.90
19781;DHT22;10050;55.492;13.506;2022-12-16T13:22:44;-0.50;99.90
19781;DHT22;10050;55.492;13.506;2022-12-16T13:28:21;-0.80;99.90
19781;DHT22;10050;55.492;13.506;2022-12-16T13:31:07;-0.90;99.90
19781;DHT22;10050;55.492;13.506;2022-12-16T13:33:52;-1.00;99.90
19781;DHT22;10050;55.492;13.506;2022-12-16T13:36:37;-1.10;99.90
19781;DHT22;10050;55.492;13.506;2022-12-16T13:39:29;-1.30;99.90
19781;DHT22;10050;55.492;13.506;2022-12-16T13:45:34;-1.60;99.90
19781;DHT22;10050;55.492;13.506;2022-12-16T13:48:38;-1.70;99.90
19781;DHT22;10050;55.492;13.506;2022-12-16T13:54:28;-2.00;99.90
19781;DHT22;10050;55.492;13.506;2022-12-16T13:57:14;-1.90;99.90
19781;DHT22;10050;55.492;13.506;2022-12-16T14:00:02;-1.90;99.90
19781;DHT22;10050;55.492;13.506;2022-12-16T14:02:49;-2.10;99.90
19781;DHT22;10050;55.492;13.506;2022-12-16T14:05:36;-2.20;99.90
19781;DHT22;10050;55.492;13.506;2022-12-16T14:08:28;-2.40;99.90
19781;DHT22;10050;55.492;13.506;2022-12-16T14:11:24;-2.50;99.90
19781;DHT22;10050;55.492;13.506;2022-12-16T14:14:28;-2.60;99.90
19781;DHT22;10050;55.492;13.506;2022-12-16T14:17:25;-2.70;99.90
19781;DHT22;10050;55.492;13.506;2022-12-16T14:20:33;-2.80;99.90
19781;DHT22;10050;55.492;13.506;2022-12-16T14:26:12;-3.00;99.90
19781;DHT22;10050;55.492;13.506;2022-12-16T14:28:57;-3.10;99.90
19781;DHT22;10050;55.492;13.506;2022-12-16T14:31:43;-3.20;99.90
19781;DHT22;10050;55.492;13.506;2022-12-16T14:34:33;-3.20;99.90
19781;DHT22;10050;55.492;13.506;2022-12-16T14:40:27;-3.30;99.90
19781;DHT22;10050;55.492;13.506;2022-12-16T14:43:21;-3.30;99.90
19781;DHT22;10050;55.492;13.506;2022-12-16T14:46:17;-3.30;99.90
19781;DHT22;10050;55.492;13.506;2022-12-16T14:49:22;-3.30;99.90
19781;DHT22;10050;55.492;13.506;2022-12-16T14:52:21;-3.50;99.90
19781;DHT22;10050;55.492;13.506;2022-12-16T14:55:30;-3.60;99.90
19781;DHT22;10050;55.492;13.506;2022-12-16T14:58:19;-3.60;99.90
19781;DHT22;10050;55.492;13.506;2022-12-16T15:03:56;-3.80;99.90
19781;DHT22;10050;55.492;13.506;2022-12-16T15:06:43;-3.90;99.90
19781;DHT22;10050;55.492;13.506;2022-12-16T15:09:33;-3.90;99.90
19781;DHT22;10050;55.492;13.506;2022-12-16T15:12:20;-4.00;99.90
19781;DHT22;10050;55.492;13.506;2022-12-16T15:15:09;-4.10;99.90
19781;DHT22;10050;55.492;13.506;2022-12-16T15:17:57;-4.20;99.90
19781;DHT22;10050;55.492;13.506;2022-12-16T15:20:52;-4.20;99.90
19781;DHT22;10050;55.492;13.506;2022-12-16T15:23:42;-4.30;99.90
19781;DHT22;10050;55.492;13.506;2022-12-16T15:26:30;-4.40;99.90
19781;DHT22;10050;55.492;13.506;2022-12-16T15:29:36;-4.40;99.90
19781;DHT22;10050;55.492;13.506;2022-12-16T15:32:27;-4.40;99.90
19781;DHT22;10050;55.492;13.506;2022-12-16T15:35:33;-4.50;99.90
19781;DHT22;10050;55.492;13.506;2022-12-16T15:38:27;-4.50;99.90
19781;DHT22;10050;55.492;13.506;2022-12-16T15:41:35;-4.50;99.90
19781;DHT22;10050;55.492;13.506;2022-12-16T15:44:21;-4.60;99.90
19781;DHT22;10050;55.492;13.506;2022-12-16T15:47:32;-4.70;99.90
19781;DHT22;10050;55.492;13.506;2022-12-16T15:50:25;-4.70;99.90
19781;DHT22;10050;55.492;13.506;2022-12-16T15:53:32;-4.80;99.90
19781;DHT22;10050;55.492;13.506;2022-12-16T15:56:45;-4.90;99.90
19781;DHT22;10050;55.492;13.506;2022-12-16T15:59:32;-5.00;99.90
19781;DHT22;10050;55.492;13.506;2022-12-16T16:05:23;-5.10;99.90
19781;DHT22;10050;55.492;13.506;2022-12-16T16:08:09;-5.10;99.90
19781;DHT22;10050;55.492;13.506;2022-12-16T16:10:53;-5.20;99.90
19781;DHT22;10050;55.492;13.506;2022-12-16T16:13:38;-5.20;99.90
19781;DHT22;10050;55.492;13.506;2022-12-16T16:16:22;-5.30;99.90
19781;DHT22;10050;55.492;13.506;2022-12-16T16:19:18;-5.40;99.90
19781;DHT22;10050;55.492;13.506;2022-12-16T16:22:04;-5.50;99.90
19781;DHT22;10050;55.492;13.506;2022-12-16T16:24:48;-5.40;99.90
19781;DHT22;10050;55.492;13.506;2022-12-16T16:27:33;-5.40;99.90
19781;DHT22;10050;55.492;13.506;2022-12-16T16:30:17;-5.40;99.90
19781;DHT22;10050;55.492;13.506;2022-12-16T16:33:01;-5.40;99.90
19781;DHT22;10050;55.492;13.506;2022-12-16T16:35:45;-5.50;99.90
19781;DHT22;10050;55.492;13.506;2022-12-16T16:38:30;-5.50;99.90
19781;DHT22;10050;55.492;13.506;2022-12-16T16:41:14;-5.60;99.90
19781;DHT22;10050;55.492;13.506;2022-12-16T16:43:59;-5.70;99.90
19781;DHT22;10050;55.492;13.506;2022-12-16T16:46:45;-5.70;99.90
19781;DHT22;10050;55.492;13.506;2022-12-16T16:49:39;-5.70;99.90
19781;DHT22;10050;55.492;13.506;2022-12-16T16:52:25;-5.80;99.90
19781;DHT22;10050;55.492;13.506;2022-12-16T16:55:19;-5.90;99.90
19781;DHT22;10050;55.492;13.506;2022-12-16T16:58:13;-5.90;99.90
19781;DHT22;10050;55.492;13.506;2022-12-16T17:00:57;-6.00;99.90
19781;DHT22;10050;55.492;13.506;2022-12-16T17:03:42;-6.00;99.90
19781;DHT22;10050;55.492;13.506;2022-12-16T17:06:26;-6.00;99.90
19781;DHT22;10050;55.492;13.506;2022-12-16T17:09:11;-6.00;99.90
19781;DHT22;10050;55.492;13.506;2022-12-16T17:11:55;-6.10;99.90
19781;DHT22;10050;55.492;13.506;2022-12-16T17:14:39;-6.20;99.90
19781;DHT22;10050;55.492;13.506;2022-12-16T17:17:24;-6.20;99.90
19781;DHT22;10050;55.492;13.506;2022-12-16T17:20:14;-6.20;99.90
19781;DHT22;10050;55.492;13.506;2022-12-16T17:22:58;-6.30;99.90
19781;DHT22;10050;55.492;13.506;2022-12-16T17:25:42;-6.30;99.90
19781;DHT22;10050;55.492;13.506;2022-12-16T17:28:27;-6.30;99.90
19781;DHT22;10050;55.492;13.506;2022-12-16T17:31:11;-6.30;99.90
19781;DHT22;10050;55.492;13.506;2022-12-16T17:33:55;-6.50;99.90
19781;DHT22;10050;55.492;13.506;2022-12-16T17:36:39;-6.60;99.90
19781;DHT22;10050;55.492;13.506;2022-12-16T17:39:23;-6.70;99.90
19781;DHT22;10050;55.492;13.506;2022-12-16T17:42:08;-6.70;99.90
19781;DHT22;10050;55.492;13.506;2022-12-16T17:44:52;-6.70;99.90
19781;DHT22;10050;55.492;13.506;2022-12-16T17:47:36;-6.70;99.90
19781;DHT22;10050;55.492;13.506;2022-12-16T17:50:21;-6.70;99.90
19781;DHT22;10050;55.492;13.506;2022-12-16T17:53:05;-6.70;99.90
19781;DHT22;10050;55.492;13.506;2022-12-16T17:55:49;-6.70;99.90
19781;DHT22;10050;55.492;13.506;2022-12-16T17:58:35;-6.70;99.90
19781;DHT22;10050;55.492;13.506;2022-12-16T18:01:21;-6.80;99.90
19781;DHT22;10050;55.492;13.506;2022-12-16T18:04:05;-6.80;99.90
19781;DHT22;10050;55.492;13.506;2022-12-16T18:06:49;-6.90;99.90
19781;DHT22;10050;55.492;13.506;2022-12-16T18:09:34;-6.80;99.90
19781;DHT22;10050;55.492;13.506;2022-12-16T18:12:19;-6.90;99.90
19781;DHT22;10050;55.492;13.506;2022-12-16T18:15:03;-6.90;99.90
19781;DHT22;10050;55.492;13.506;2022-12-16T18:17:48;-6.90;99.90
19781;DHT22;10050;55.492;13.506;2022-12-16T18:20:33;-6.90;99.90
19781;DHT22;10050;55.492;13.506;2022-12-16T18:23:17;-6.90;99.90
19781;DHT22;10050;55.492;13.506;2022-12-16T18:26:04;-6.90;99.90
19781;DHT22;10050;55.492;13.506;2022-12-16T18:28:49;-7.00;99.90
19781;DHT22;10050;55.492;13.506;2022-12-16T18:31:34;-7.00;99.90
19781;DHT22;10050;55.492;13.506;2022-12-16T18:34:18;-7.10;99.90
19781;DHT22;10050;55.492;13.506;2022-12-16T18:37:03;-7.10;99.90
19781;DHT22;10050;55.492;13.506;2022-12-16T18:39:47;-7.20;99.90
19781;DHT22;10050;55.492;13.506;2022-12-16T18:42:31;-7.20;99.90
19781;DHT22;10050;55.492;13.506;2022-12-16T18:45:16;-7.20;99.90
19781;DHT22;10050;55.492;13.506;2022-12-16T18:48:00;-7.30;99.90
19781;DHT22;10050;55.492;13.506;2022-12-16T18:50:51;-7.30;99.90
19781;DHT22;10050;55.492;13.506;2022-12-16T18:53:35;-7.30;99.90
19781;DHT22;10050;55.492;13.506;2022-12-16T18:56:19;-7.30;99.90
19781;DHT22;10050;55.492;13.506;2022-12-16T18:59:04;-7.30;99.90
19781;DHT22;10050;55.492;13.506;2022-12-16T19:01:48;-7.20;99.90
19781;DHT22;10050;55.492;13.506;2022-12-16T19:04:32;-7.30;99.90
19781;DHT22;10050;55.492;13.506;2022-12-16T19:07:16;-7.20;99.90
19781;DHT22;10050;55.492;13.506;2022-12-16T19:10:01;-7.20;99.90
19781;DHT22;10050;55.492;13.506;2022-12-16T19:12:45;-7.20;99.90
19781;DHT22;10050;55.492;13.506;2022-12-16T19:15:29;-7.20;99.90
19781;DHT22;10050;55.492;13.506;2022-12-16T19:18:13;-7.30;99.90
19781;DHT22;10050;55.492;13.506;2022-12-16T19:20:57;-7.30;99.90
19781;DHT22;10050;55.492;13.506;2022-12-16T19:23:42;-7.30;99.90
19781;DHT22;10050;55.492;13.506;2022-12-16T19:26:26;-7.40;99.90
19781;DHT22;10050;55.492;13.506;2022-12-16T19:29:10;-7.40;99.90
19781;DHT22;10050;55.492;13.506;2022-12-16T19:31:55;-7.40;99.90
19781;DHT22;10050;55.492;13.506;2022-12-16T19:34:39;-7.40;99.90
19781;DHT22;10050;55.492;13.506;2022-12-16T19:37:23;-7.50;99.90
19781;DHT22;10050;55.492;13.506;2022-12-16T19:40:08;-7.50;99.90
19781;DHT22;10050;55.492;13.506;2022-12-16T19:42:52;-7.60;99.90
19781;DHT22;10050;55.492;13.506;2022-12-16T19:45:37;-7.60;99.90
19781;DHT22;10050;55.492;13.506;2022-12-16T19:48:21;-7.70;99.90
19781;DHT22;10050;55.492;13.506;2022-12-16T19:51:05;-7.70;99.90
19781;DHT22;10050;55.492;13.506;2022-12-16T19:53:50;-7.70;99.90
19781;DHT22;10050;55.492;13.506;2022-12-16T19:56:34;-7.80;99.90
19781;DHT22;10050;55.492;13.506;2022-12-16T19:59:19;-7.90;99.90
19781;DHT22;10050;55.492;13.506;2022-12-16T20:02:05;-7.90;99.90
19781;DHT22;10050;55.492;13.506;2022-12-16T20:04:49;-7.90;99.90
19781;DHT22;10050;55.492;13.506;2022-12-16T20:07:33;-7.80;99.90
19781;DHT22;10050;55.492;13.506;2022-12-16T20:10:18;-7.80;99.90
19781;DHT22;10050;55.492;13.506;2022-12-16T20:13:10;-7.90;99.90
19781;DHT22;10050;55.492;13.506;2022-12-16T20:16:03;-7.90;99.90
19781;DHT22;10050;55.492;13.506;2022-12-16T20:18:48;-7.90;99.90
19781;DHT22;10050;55.492;13.506;2022-12-16T20:21:32;-7.90;99.90
19781;DHT22;10050;55.492;13.506;2022-12-16T20:24:16;-8.00;99.90
19781;DHT22;10050;55.492;13.506;2022-12-16T20:27:00;-8.00;99.90
19781;DHT22;10050;55.492;13.506;2022-12-16T20:29:44;-8.10;99.90
19781;DHT22;10050;55.492;13.506;2022-12-16T20:32:29;-8.20;99.90
19781;DHT22;10050;55.492;13.506;2022-12-16T20:35:13;-8.10;99.90
19781;DHT22;10050;55.492;13.506;2022-12-16T20:37:59;-8.20;99.90
19781;DHT22;10050;55.492;13.506;2022-12-16T20:40:43;-8.10;99.90
19781;DHT22;10050;55.492;13.506;2022-12-16T20:43:27;-8.20;99.90
19781;DHT22;10050;55.492;13.506;2022-12-16T20:46:15;-8.20;99.90
19781;DHT22;10050;55.492;13.506;2022-12-16T20:48:59;-8.20;99.90
19781;DHT22;10050;55.492;13.506;2022-12-16T20:51:43;-8.10;99.90
19781;DHT22;10050;55.492;13.506;2022-12-16T20:54:28;-8.20;99.90
19781;DHT22;10050;55.492;13.506;2022-12-16T20:57:16;-8.10;99.90
19781;DHT22;10050;55.492;13.506;2022-12-16T21:00:00;-8.10;99.90
19781;DHT22;10050;55.492;13.506;2022-12-16T21:02:44;-8.10;99.90
19781;DHT22;10050;55.492;13.506;2022-12-16T21:05:29;-8.20;99.90
19781;DHT22;10050;55.492;13.506;2022-12-16T21:08:13;-8.20;99.90
19781;DHT22;10050;55.492;13.506;2022-12-16T21:10:57;-8.20;99.90
19781;DHT22;10050;55.492;13.506;2022-12-16T21:13:44;-8.30;99.90
19781;DHT22;10050;55.492;13.506;2022-12-16T21:16:28;-8.30;99.90
19781;DHT22;10050;55.492;13.506;2022-12-16T21:19:16;-8.30;99.90
19781;DHT22;10050;55.492;13.506;2022-12-16T21:22:00;-8.30;99.90
19781;DHT22;10050;55.492;13.506;2022-12-16T21:24:44;-8.30;99.90
19781;DHT22;10050;55.492;13.506;2022-12-16T21:27:28;-8.30;99.90
19781;DHT22;10050;55.492;13.506;2022-12-16T21:30:13;-8.30;99.90
19781;DHT22;10050;55.492;13.506;2022-12-16T21:32:57;-8.30;99.90
19781;DHT22;10050;55.492;13.506;2022-12-16T21:35:41;-8.30;99.90
19781;DHT22;10050;55.492;13.506;2022-12-16T21:38:25;-8.40;99.90
19781;DHT22;10050;55.492;13.506;2022-12-16T21:41:10;-8.30;99.90
19781;DHT22;10050;55.492;13.506;2022-12-16T21:43:54;-8.30;99.90
19781;DHT22;10050;55.492;13.506;2022-12-16T21:46:38;-8.30;99.90
19781;DHT22;10050;55.492;13.506;2022-12-16T21:49:23;-8.30;99.90
19781;DHT22;10050;55.492;13.506;2022-12-16T21:52:07;-8.40;99.90
19781;DHT22;10050;55.492;13.506;2022-12-16T21:54:51;-8.40;99.90
19781;DHT22;10050;55.492;13.506;2022-12-16T21:57:35;-8.40;99.90
19781;DHT22;10050;55.492;13.506;2022-12-16T22:00:19;-8.40;99.90
19781;DHT22;10050;55.492;13.506;2022-12-16T22:03:03;-8.30;99.90
19781;DHT22;10050;55.492;13.506;2022-12-16T22:05:47;-8.40;99.90
19781;DHT22;10050;55.492;13.506;2022-12-16T22:08:52;-8.40;99.90
19781;DHT22;10050;55.492;13.506;2022-12-16T22:11:36;-8.40;99.90
19781;DHT22;10050;55.492;13.506;2022-12-16T22:14:20;-8.30;99.90
19781;DHT22;10050;55.492;13.506;2022-12-16T22:17:04;-8.40;99.90
19781;DHT22;10050;55.492;13.506;2022-12-16T22:19:48;-8.40;99.90
19781;DHT22;10050;55.492;13.506;2022-12-16T22:22:33;-8.40;99.90
19781;DHT22;10050;55.492;13.506;2022-12-16T22:25:17;-8.40;99.90
19781;DHT22;10050;55.492;13.506;2022-12-16T22:28:01;-8.40;99.90
19781;DHT22;10050;55.492;13.506;2022-12-16T22:30:52;-8.50;99.90
19781;DHT22;10050;55.492;13.506;2022-12-16T22:33:36;-8.50;99.90
19781;DHT22;10050;55.492;13.506;2022-12-16T22:36:20;-8.60;99.90
19781;DHT22;10050;55.492;13.506;2022-12-16T22:39:05;-8.50;99.90
19781;DHT22;10050;55.492;13.506;2022-12-16T22:41:49;-8.60;99.90
19781;DHT22;10050;55.492;13.506;2022-12-16T22:44:33;-8.50;99.90
19781;DHT22;10050;55.492;13.506;2022-12-16T22:47:17;-8.70;99.90
19781;DHT22;10050;55.492;13.506;2022-12-16T22:50:01;-8.70;99.90
19781;DHT22;10050;55.492;13.506;2022-12-16T22:52:45;-8.70;99.90
19781;DHT22;10050;55.492;13.506;2022-12-16T22:55:30;-8.70;99.90
19781;DHT22;10050;55.492;13.506;2022-12-16T22:58:14;-8.70;99.90
19781;DHT22;10050;55.492;13.506;2022-12-16T23:00:58;-8.70;99.90
19781;DHT22;10050;55.492;13.506;2022-12-16T23:03:42;-8.60;99.90
19781;DHT22;10050;55.492;13.506;2022-12-16T23:06:28;-8.70;99.90
19781;DHT22;10050;55.492;13.506;2022-12-16T23:09:12;-8.70;99.90
19781;DHT22;10050;55.492;13.506;2022-12-16T23:11:57;-8.70;99.90
19781;DHT22;10050;55.492;13.506;2022-12-16T23:14:41;-8.80;99.90
19781;DHT22;10050;55.492;13.506;2022-12-16T23:17:25;-8.80;99.90